CDT,Max TemperatureF,Mean TemperatureF,Min TemperatureF,Max Dew PointF,MeanDew PointF,Min DewpointF,Max Humidity, Mean Humidity, Min Humidity, Max Sea Level PressureIn, Mean Sea Level PressureIn, Min Sea Level PressureIn, Max VisibilityMiles, Mean VisibilityMiles, Min VisibilityMiles, Max Wind SpeedMPH, Mean Wind SpeedMPH, Max Gust SpeedMPH,PrecipitationIn, CloudCover, Events, WindDirDegrees
2012-9-1,90,83,75,76,74,72,94,81,68,30.15,30.09,30.03,10,9,1,23,9,29,0.25,4,Rain-Thunderstorm,194
2012-9-2,91,83,75,76,74,72,94,77,59,30.08,30.01,29.92,10,9,5,15,8,20,0.00,4,,212
2012-9-3,93,85,77,77,76,74,94,75,56,30.01,29.94,29.88,10,10,7,15,8,18,0.00,4,,223
2012-9-4,95,86,77,78,76,74,94,75,56,29.93,29.89,29.83,10,10,7,15,6,22,0.00,2,,244
2012-9-5,96,88,79,78,75,73,85,67,49,29.90,29.85,29.81,10,10,9,13,4,15,0.00,3,,318
2012-9-6,96,87,77,76,74,71,94,72,49,29.95,29.90,29.86,10,9,7,13,3,18,0.00,2,,145
2012-9-7,93,84,75,75,73,71,94,73,52,29.94,29.88,29.79,10,10,7,10,3,13,0.00,1,,150
2012-9-8,80,72,64,74,68,55,94,79,63,29.99,29.90,29.82,10,10,6,16,7,20,T,5,Rain,336
2012-9-9,83,70,56,60,56,53,93,65,37,30.09,30.03,29.97,10,10,10,13,4,18,0.00,0,,9
2012-9-10,86,71,56,65,58,55,93,65,37,30.14,30.09,30.06,10,10,10,15,3,21,0.00,1,,53
2012-9-11,86,72,58,63,60,55,93,68,42,30.18,30.12,30.08,10,10,10,13,4,21,0.00,1,,117
2012-9-12,88,76,64,69,64,59,84,65,46,30.18,30.12,30.06,10,10,9,13,5,16,0.00,3,,128
2012-9-13,86,79,71,72,67,64,87,69,51,30.19,30.14,30.09,10,10,10,13,5,16,0.04,4,,99
2012-9-14,88,79,69,66,65,62,84,65,45,30.19,30.15,30.09,10,10,10,9,4,13,0.00,3,,82
2012-9-15,88,76,64,70,64,61,93,67,40,30.16,30.10,30.05,10,10,7,8,2,10,0.00,1,,78
2012-9-16,87,77,67,73,68,65,93,72,51,30.06,30.00,29.93,10,10,7,8,2,10,0.00,1,,104
2012-9-17,77,74,71,73,71,69,94,91,87,29.93,29.81,29.73,10,7,1,14,5,20,0.41,7,Rain,147
2012-9-18,80,71,62,70,66,50,97,79,60,30.04,29.86,29.74,10,9,1,18,8,24,1.23,7,Rain-Thunderstorm,331
2012-9-19,76,64,52,57,50,45,93,65,36,30.14,30.09,30.04,10,10,10,14,4,17,0.00,0,,21
2012-9-20,81,66,50,59,51,42,96,61,26,30.12,30.07,30.02,10,10,10,8,1,10,0.00,0,,32
2012-9-21,85,70,55,65,59,52,93,69,44,30.07,30.02,29.96,10,10,8,12,2,18,0.00,1,,174
2012-9-22,89,75,60,68,63,59,100,71,41,30.10,30.05,30.00,10,7,1,12,2,15,0.00,0,,261
2012-9-23,89,75,61,65,62,59,100,72,43,30.17,30.13,30.09,10,10,5,12,4,15,0.00,0,,355
2012-9-24,84,73,61,64,56,48,78,59,40,30.21,30.15,30.09,10,10,10,8,4,12,0.00,0,,87
2012-9-25,87,75,62,70,64,58,90,73,55,30.12,30.09,30.04,10,10,10,12,5,17,0.00,0,,162
2012-9-26,86,73,59,65,62,57,93,69,44,30.14,30.09,30.05,10,10,8,15,4,18,0.00,0,,159
2012-9-27,88,76,63,70,65,62,100,72,43,30.16,30.10,30.03,10,9,6,12,1,14,0.00,1,,146
2012-9-28,88,76,63,71,67,62,100,74,48,30.10,30.04,29.97,10,9,4,8,1,9,0.00,2,,101
2012-9-29,79,74,69,73,70,66,100,87,74,29.99,29.92,29.88,10,7,1,16,3,21,0.77,6,Rain,90
2012-9-30,76,71,65,73,68,64,100,94,87,29.89,29.70,29.51,10,6,1,16,7,21,1.42,8,Rain,98